sensor_id;sensor_type;location;lat;lon;timestamp;P1;durP1;ratioP1;P2;durP2;ratioP2
68010;SDS011;54794;48.348;7.878;2024-03-08T00:02:43;12.98;;;7.28;;
68010;SDS011;54794;48.348;7.878;2024-03-08T00:05:12;12.02;;;6.97;;
68010;SDS011;54794;48.348;7.878;2024-03-08T00:07:41;12.55;;;7.20;;
68010;SDS011;54794;48.348;7.878;2024-03-08T00:10:10;12.95;;;7.07;;
68010;SDS011;54794;48.348;7.878;2024-03-08T00:12:41;11.70;;;6.85;;
68010;SDS011;54794;48.348;7.878;2024-03-08T00:15:15;13.07;;;7.43;;
68010;SDS011;54794;48.348;7.878;2024-03-08T00:17:45;11.38;;;6.82;;
68010;SDS011;54794;48.348;7.878;2024-03-08T00:20:14;10.35;;;6.20;;
68010;SDS011;54794;48.348;7.878;2024-03-08T00:22:44;12.65;;;7.43;;
68010;SDS011;54794;48.348;7.878;2024-03-08T00:25:12;14.23;;;8.07;;
68010;SDS011;54794;48.348;7.878;2024-03-08T00:27:38;12.10;;;7.22;;
68010;SDS011;54794;48.348;7.878;2024-03-08T00:30:06;14.15;;;7.90;;
68010;SDS011;54794;48.348;7.878;2024-03-08T00:32:34;12.27;;;6.90;;
68010;SDS011;54794;48.348;7.878;2024-03-08T00:35:02;12.38;;;7.32;;
68010;SDS011;54794;48.348;7.878;2024-03-08T00:37:29;10.43;;;6.38;;
68010;SDS011;54794;48.348;7.878;2024-03-08T00:39:56;13.82;;;8.30;;
68010;SDS011;54794;48.348;7.878;2024-03-08T00:42:23;13.83;;;7.60;;
68010;SDS011;54794;48.348;7.878;2024-03-08T00:44:50;10.68;;;6.82;;
68010;SDS011;54794;48.348;7.878;2024-03-08T00:47:18;13.00;;;7.75;;
68010;SDS011;54794;48.348;7.878;2024-03-08T00:49:45;10.77;;;6.63;;
68010;SDS011;54794;48.348;7.878;2024-03-08T00:52:13;11.82;;;6.70;;
68010;SDS011;54794;48.348;7.878;2024-03-08T00:54:40;10.60;;;6.13;;
68010;SDS011;54794;48.348;7.878;2024-03-08T00:57:07;11.65;;;7.10;;
68010;SDS011;54794;48.348;7.878;2024-03-08T00:59:34;11.18;;;6.53;;
68010;SDS011;54794;48.348;7.878;2024-03-08T01:02:01;11.43;;;6.50;;
68010;SDS011;54794;48.348;7.878;2024-03-08T01:04:28;10.75;;;6.75;;
68010;SDS011;54794;48.348;7.878;2024-03-08T01:06:56;10.23;;;6.28;;
68010;SDS011;54794;48.348;7.878;2024-03-08T01:09:24;13.70;;;7.35;;
68010;SDS011;54794;48.348;7.878;2024-03-08T01:11:53;12.10;;;7.45;;
68010;SDS011;54794;48.348;7.878;2024-03-08T01:14:21;11.93;;;7.15;;
68010;SDS011;54794;48.348;7.878;2024-03-08T01:16:49;13.30;;;6.93;;
68010;SDS011;54794;48.348;7.878;2024-03-08T01:21:44;10.95;;;6.30;;
68010;SDS011;54794;48.348;7.878;2024-03-08T01:24:10;9.48;;;5.55;;
68010;SDS011;54794;48.348;7.878;2024-03-08T01:26:37;12.13;;;6.97;;
68010;SDS011;54794;48.348;7.878;2024-03-08T01:29:05;12.00;;;7.13;;
68010;SDS011;54794;48.348;7.878;2024-03-08T01:31:32;10.10;;;5.90;;
68010;SDS011;54794;48.348;7.878;2024-03-08T01:33:59;11.20;;;5.70;;
68010;SDS011;54794;48.348;7.878;2024-03-08T01:36:26;10.25;;;5.78;;
68010;SDS011;54794;48.348;7.878;2024-03-08T01:38:53;11.05;;;6.80;;
68010;SDS011;54794;48.348;7.878;2024-03-08T01:41:20;11.52;;;6.70;;
68010;SDS011;54794;48.348;7.878;2024-03-08T01:43:47;9.00;;;5.28;;
68010;SDS011;54794;48.348;7.878;2024-03-08T01:46:17;9.02;;;5.43;;
68010;SDS011;54794;48.348;7.878;2024-03-08T01:48:48;10.15;;;6.18;;
68010;SDS011;54794;48.348;7.878;2024-03-08T01:51:17;10.40;;;6.53;;
68010;SDS011;54794;48.348;7.878;2024-03-08T01:53:45;11.65;;;5.93;;
68010;SDS011;54794;48.348;7.878;2024-03-08T01:56:14;10.63;;;6.60;;
68010;SDS011;54794;48.348;7.878;2024-03-08T01:58:41;12.55;;;6.93;;
68010;SDS011;54794;48.348;7.878;2024-03-08T02:01:10;9.85;;;6.03;;
68010;SDS011;54794;48.348;7.878;2024-03-08T02:03:42;9.77;;;5.68;;
68010;SDS011;54794;48.348;7.878;2024-03-08T02:06:11;12.05;;;6.10;;
68010;SDS011;54794;48.348;7.878;2024-03-08T02:08:41;9.77;;;5.90;;
68010;SDS011;54794;48.348;7.878;2024-03-08T02:11:13;8.30;;;5.13;;
68010;SDS011;54794;48.348;7.878;2024-03-08T02:13:40;7.45;;;5.00;;
68010;SDS011;54794;48.348;7.878;2024-03-08T02:16:09;8.82;;;5.50;;
68010;SDS011;54794;48.348;7.878;2024-03-08T02:18:36;8.70;;;5.10;;
68010;SDS011;54794;48.348;7.878;2024-03-08T02:21:06;9.63;;;5.63;;
68010;SDS011;54794;48.348;7.878;2024-03-08T02:23:34;7.50;;;4.80;;
68010;SDS011;54794;48.348;7.878;2024-03-08T02:26:03;7.88;;;4.88;;
68010;SDS011;54794;48.348;7.878;2024-03-08T02:28:30;9.18;;;5.40;;
68010;SDS011;54794;48.348;7.878;2024-03-08T02:30:57;8.18;;;5.57;;
68010;SDS011;54794;48.348;7.878;2024-03-08T02:33:25;8.88;;;5.10;;
68010;SDS011;54794;48.348;7.878;2024-03-08T02:35:54;9.75;;;5.03;;
68010;SDS011;54794;48.348;7.878;2024-03-08T02:38:22;9.80;;;5.88;;
68010;SDS011;54794;48.348;7.878;2024-03-08T02:40:51;9.95;;;5.90;;
68010;SDS011;54794;48.348;7.878;2024-03-08T02:43:20;10.63;;;6.10;;
68010;SDS011;54794;48.348;7.878;2024-03-08T02:45:48;8.27;;;4.88;;
68010;SDS011;54794;48.348;7.878;2024-03-08T02:48:16;8.48;;;5.05;;
68010;SDS011;54794;48.348;7.878;2024-03-08T02:50:43;8.35;;;5.22;;
68010;SDS011;54794;48.348;7.878;2024-03-08T02:53:11;9.98;;;5.97;;
68010;SDS011;54794;48.348;7.878;2024-03-08T02:55:39;9.63;;;5.50;;
68010;SDS011;54794;48.348;7.878;2024-03-08T02:58:07;8.60;;;5.03;;
68010;SDS011;54794;48.348;7.878;2024-03-08T03:00:38;9.68;;;5.43;;
68010;SDS011;54794;48.348;7.878;2024-03-08T03:03:06;8.23;;;5.20;;
68010;SDS011;54794;48.348;7.878;2024-03-08T03:05:34;9.60;;;5.10;;
68010;SDS011;54794;48.348;7.878;2024-03-08T03:08:01;7.57;;;5.03;;
68010;SDS011;54794;48.348;7.878;2024-03-08T03:10:35;9.43;;;5.45;;
68010;SDS011;54794;48.348;7.878;2024-03-08T03:15:30;8.48;;;4.40;;
68010;SDS011;54794;48.348;7.878;2024-03-08T03:17:57;8.97;;;5.47;;
68010;SDS011;54794;48.348;7.878;2024-03-08T03:20:24;8.65;;;5.15;;
68010;SDS011;54794;48.348;7.878;2024-03-08T03:22:59;8.07;;;5.28;;
68010;SDS011;54794;48.348;7.878;2024-03-08T03:25:28;7.25;;;4.60;;
68010;SDS011;54794;48.348;7.878;2024-03-08T03:27:59;9.05;;;5.70;;
68010;SDS011;54794;48.348;7.878;2024-03-08T03:30:28;8.90;;;5.22;;
68010;SDS011;54794;48.348;7.878;2024-03-08T03:33:02;9.63;;;5.55;;
68010;SDS011;54794;48.348;7.878;2024-03-08T03:35:36;8.85;;;4.32;;
68010;SDS011;54794;48.348;7.878;2024-03-08T03:38:04;8.85;;;5.15;;
68010;SDS011;54794;48.348;7.878;2024-03-08T03:40:37;8.35;;;5.05;;
68010;SDS011;54794;48.348;7.878;2024-03-08T03:43:06;8.38;;;4.82;;
68010;SDS011;54794;48.348;7.878;2024-03-08T03:45:33;7.78;;;5.22;;
68010;SDS011;54794;48.348;7.878;2024-03-08T03:48:03;7.85;;;5.22;;
68010;SDS011;54794;48.348;7.878;2024-03-08T03:50:36;8.07;;;5.22;;
68010;SDS011;54794;48.348;7.878;2024-03-08T03:53:04;8.95;;;5.45;;
68010;SDS011;54794;48.348;7.878;2024-03-08T03:55:35;9.70;;;5.72;;
68010;SDS011;54794;48.348;7.878;2024-03-08T03:58:04;9.20;;;5.60;;
68010;SDS011;54794;48.348;7.878;2024-03-08T04:00:31;7.95;;;5.43;;
68010;SDS011;54794;48.348;7.878;2024-03-08T04:05:27;9.03;;;4.83;;
68010;SDS011;54794;48.348;7.878;2024-03-08T04:07:54;8.82;;;5.40;;
68010;SDS011;54794;48.348;7.878;2024-03-08T04:10:21;11.75;;;6.40;;
68010;SDS011;54794;48.348;7.878;2024-03-08T04:12:47;10.00;;;5.53;;
68010;SDS011;54794;48.348;7.878;2024-03-08T04:15:14;8.60;;;4.68;;
68010;SDS011;54794;48.348;7.878;2024-03-08T04:17:41;8.10;;;4.93;;
68010;SDS011;54794;48.348;7.878;2024-03-08T04:20:09;9.07;;;5.13;;
68010;SDS011;54794;48.348;7.878;2024-03-08T04:22:37;8.45;;;4.95;;
68010;SDS011;54794;48.348;7.878;2024-03-08T04:25:05;7.00;;;4.38;;
68010;SDS011;54794;48.348;7.878;2024-03-08T04:27:33;8.52;;;5.00;;
68010;SDS011;54794;48.348;7.878;2024-03-08T04:30:01;9.20;;;5.43;;
68010;SDS011;54794;48.348;7.878;2024-03-08T04:32:28;8.80;;;5.25;;
68010;SDS011;54794;48.348;7.878;2024-03-08T04:34:56;9.00;;;4.80;;
68010;SDS011;54794;48.348;7.878;2024-03-08T04:37:23;8.18;;;4.60;;
68010;SDS011;54794;48.348;7.878;2024-03-08T04:42:17;8.30;;;4.80;;
68010;SDS011;54794;48.348;7.878;2024-03-08T04:44:45;9.35;;;5.40;;
68010;SDS011;54794;48.348;7.878;2024-03-08T04:47:12;8.50;;;5.30;;
68010;SDS011;54794;48.348;7.878;2024-03-08T04:49:38;8.88;;;5.35;;
68010;SDS011;54794;48.348;7.878;2024-03-08T04:52:05;9.10;;;5.00;;
68010;SDS011;54794;48.348;7.878;2024-03-08T04:54:33;10.38;;;5.32;;
68010;SDS011;54794;48.348;7.878;2024-03-08T04:57:00;9.00;;;5.28;;
68010;SDS011;54794;48.348;7.878;2024-03-08T04:59:30;8.75;;;4.97;;
68010;SDS011;54794;48.348;7.878;2024-03-08T05:01:57;9.20;;;5.38;;
68010;SDS011;54794;48.348;7.878;2024-03-08T05:04:23;9.00;;;4.97;;
68010;SDS011;54794;48.348;7.878;2024-03-08T05:06:50;9.63;;;5.45;;
68010;SDS011;54794;48.348;7.878;2024-03-08T05:09:17;12.27;;;5.78;;
68010;SDS011;54794;48.348;7.878;2024-03-08T05:11:45;8.15;;;4.97;;
68010;SDS011;54794;48.348;7.878;2024-03-08T05:14:13;8.55;;;4.95;;
68010;SDS011;54794;48.348;7.878;2024-03-08T05:16:46;8.57;;;5.43;;
68010;SDS011;54794;48.348;7.878;2024-03-08T05:19:16;9.52;;;5.30;;
68010;SDS011;54794;48.348;7.878;2024-03-08T05:21:45;8.52;;;4.85;;
68010;SDS011;54794;48.348;7.878;2024-03-08T05:24:14;8.40;;;4.88;;
68010;SDS011;54794;48.348;7.878;2024-03-08T05:26:42;7.13;;;4.82;;
68010;SDS011;54794;48.348;7.878;2024-03-08T05:29:09;9.40;;;5.43;;
68010;SDS011;54794;48.348;7.878;2024-03-08T05:31:46;9.25;;;5.47;;
68010;SDS011;54794;48.348;7.878;2024-03-08T05:34:18;9.05;;;5.18;;
68010;SDS011;54794;48.348;7.878;2024-03-08T05:36:48;9.20;;;5.20;;
68010;SDS011;54794;48.348;7.878;2024-03-08T05:39:16;8.45;;;5.47;;
68010;SDS011;54794;48.348;7.878;2024-03-08T05:41:46;9.18;;;5.03;;
68010;SDS011;54794;48.348;7.878;2024-03-08T05:44:14;10.00;;;5.47;;
68010;SDS011;54794;48.348;7.878;2024-03-08T05:46:43;8.50;;;4.90;;
68010;SDS011;54794;48.348;7.878;2024-03-08T05:49:10;8.30;;;4.65;;
68010;SDS011;54794;48.348;7.878;2024-03-08T05:51:38;7.60;;;4.85;;
68010;SDS011;54794;48.348;7.878;2024-03-08T05:54:07;9.18;;;5.30;;
68010;SDS011;54794;48.348;7.878;2024-03-08T05:56:40;9.45;;;5.20;;
68010;SDS011;54794;48.348;7.878;2024-03-08T05:59:08;10.15;;;5.18;;
68010;SDS011;54794;48.348;7.878;2024-03-08T06:01:37;9.60;;;4.93;;
68010;SDS011;54794;48.348;7.878;2024-03-08T06:04:04;7.85;;;4.93;;
68010;SDS011;54794;48.348;7.878;2024-03-08T06:06:31;9.07;;;5.25;;
68010;SDS011;54794;48.348;7.878;2024-03-08T06:08:57;7.40;;;4.15;;
68010;SDS011;54794;48.348;7.878;2024-03-08T06:11:25;7.85;;;4.20;;
68010;SDS011;54794;48.348;7.878;2024-03-08T06:13:57;8.60;;;4.90;;
68010;SDS011;54794;48.348;7.878;2024-03-08T06:16:26;9.30;;;5.20;;
68010;SDS011;54794;48.348;7.878;2024-03-08T06:18:56;7.38;;;4.40;;
68010;SDS011;54794;48.348;7.878;2024-03-08T06:21:24;7.72;;;4.22;;
68010;SDS011;54794;48.348;7.878;2024-03-08T06:23:53;8.05;;;4.80;;
68010;SDS011;54794;48.348;7.878;2024-03-08T06:26:21;7.43;;;4.28;;
68010;SDS011;54794;48.348;7.878;2024-03-08T06:28:48;6.10;;;3.80;;
68010;SDS011;54794;48.348;7.878;2024-03-08T06:31:15;6.15;;;3.78;;
68010;SDS011;54794;48.348;7.878;2024-03-08T06:33:42;7.45;;;3.95;;
68010;SDS011;54794;48.348;7.878;2024-03-08T06:36:09;6.28;;;3.65;;
68010;SDS011;54794;48.348;7.878;2024-03-08T06:38:38;5.35;;;3.13;;
68010;SDS011;54794;48.348;7.878;2024-03-08T06:41:09;7.95;;;4.53;;
68010;SDS011;54794;48.348;7.878;2024-03-08T06:43:42;7.65;;;4.57;;
68010;SDS011;54794;48.348;7.878;2024-03-08T06:46:10;5.72;;;3.50;;
68010;SDS011;54794;48.348;7.878;2024-03-08T06:48:39;9.93;;;4.53;;
68010;SDS011;54794;48.348;7.878;2024-03-08T06:53:33;6.88;;;4.13;;
68010;SDS011;54794;48.348;7.878;2024-03-08T06:56:01;5.97;;;3.67;;
68010;SDS011;54794;48.348;7.878;2024-03-08T06:58:29;6.07;;;3.22;;
68010;SDS011;54794;48.348;7.878;2024-03-08T07:00:56;7.90;;;3.92;;
68010;SDS011;54794;48.348;7.878;2024-03-08T07:03:26;6.47;;;3.85;;
68010;SDS011;54794;48.348;7.878;2024-03-08T07:05:56;8.45;;;4.40;;
68010;SDS011;54794;48.348;7.878;2024-03-08T07:08:26;8.48;;;4.57;;
68010;SDS011;54794;48.348;7.878;2024-03-08T07:10:53;7.10;;;4.20;;
68010;SDS011;54794;48.348;7.878;2024-03-08T07:15:47;6.82;;;3.30;;
68010;SDS011;54794;48.348;7.878;2024-03-08T07:18:14;8.75;;;4.65;;
68010;SDS011;54794;48.348;7.878;2024-03-08T07:20:41;8.90;;;4.53;;
68010;SDS011;54794;48.348;7.878;2024-03-08T07:23:10;8.35;;;4.93;;
68010;SDS011;54794;48.348;7.878;2024-03-08T07:25:37;7.07;;;3.92;;
68010;SDS011;54794;48.348;7.878;2024-03-08T07:28:05;8.18;;;4.20;;
68010;SDS011;54794;48.348;7.878;2024-03-08T07:30:37;7.15;;;3.88;;
68010;SDS011;54794;48.348;7.878;2024-03-08T07:33:10;7.40;;;4.10;;
68010;SDS011;54794;48.348;7.878;2024-03-08T07:35:39;6.95;;;4.13;;
68010;SDS011;54794;48.348;7.878;2024-03-08T07:38:07;7.38;;;3.97;;
68010;SDS011;54794;48.348;7.878;2024-03-08T07:40:36;6.97;;;4.35;;
68010;SDS011;54794;48.348;7.878;2024-03-08T07:43:10;7.00;;;4.03;;
68010;SDS011;54794;48.348;7.878;2024-03-08T07:45:38;7.05;;;4.35;;
68010;SDS011;54794;48.348;7.878;2024-03-08T07:50:37;6.05;;;3.35;;
68010;SDS011;54794;48.348;7.878;2024-03-08T07:53:06;5.75;;;3.45;;
68010;SDS011;54794;48.348;7.878;2024-03-08T07:55:34;6.32;;;3.65;;
68010;SDS011;54794;48.348;7.878;2024-03-08T07:58:02;5.72;;;3.65;;
68010;SDS011;54794;48.348;7.878;2024-03-08T08:00:30;6.63;;;3.72;;
68010;SDS011;54794;48.348;7.878;2024-03-08T08:02:59;5.70;;;3.50;;
68010;SDS011;54794;48.348;7.878;2024-03-08T08:05:27;7.10;;;3.95;;
68010;SDS011;54794;48.348;7.878;2024-03-08T08:07:54;9.10;;;4.88;;
68010;SDS011;54794;48.348;7.878;2024-03-08T08:10:22;7.05;;;4.65;;
68010;SDS011;54794;48.348;7.878;2024-03-08T08:12:51;6.82;;;3.80;;
68010;SDS011;54794;48.348;7.878;2024-03-08T08:15:17;7.07;;;4.28;;
68010;SDS011;54794;48.348;7.878;2024-03-08T08:17:44;5.47;;;3.53;;
68010;SDS011;54794;48.348;7.878;2024-03-08T08:20:12;7.38;;;4.38;;
68010;SDS011;54794;48.348;7.878;2024-03-08T08:22:39;6.05;;;3.58;;
68010;SDS011;54794;48.348;7.878;2024-03-08T08:27:34;4.63;;;2.97;;
68010;SDS011;54794;48.348;7.878;2024-03-08T08:30:05;7.13;;;4.07;;
68010;SDS011;54794;48.348;7.878;2024-03-08T08:32:35;6.30;;;3.38;;
68010;SDS011;54794;48.348;7.878;2024-03-08T08:37:30;5.35;;;3.30;;
68010;SDS011;54794;48.348;7.878;2024-03-08T08:39:58;6.63;;;4.60;;
68010;SDS011;54794;48.348;7.878;2024-03-08T08:42:31;7.97;;;4.82;;
68010;SDS011;54794;48.348;7.878;2024-03-08T08:44:58;7.87;;;4.37;;
68010;SDS011;54794;48.348;7.878;2024-03-08T08:47:34;9.80;;;5.32;;
68010;SDS011;54794;48.348;7.878;2024-03-08T08:50:02;9.70;;;5.55;;
68010;SDS011;54794;48.348;7.878;2024-03-08T08:52:33;11.57;;;6.07;;
68010;SDS011;54794;48.348;7.878;2024-03-08T08:55:02;9.02;;;6.05;;
68010;SDS011;54794;48.348;7.878;2024-03-08T08:57:30;9.73;;;5.70;;
68010;SDS011;54794;48.348;7.878;2024-03-08T08:59:59;8.45;;;5.53;;
68010;SDS011;54794;48.348;7.878;2024-03-08T09:02:26;8.30;;;5.03;;
68010;SDS011;54794;48.348;7.878;2024-03-08T09:04:53;7.22;;;4.55;;
68010;SDS011;54794;48.348;7.878;2024-03-08T09:07:21;6.93;;;4.38;;
68010;SDS011;54794;48.348;7.878;2024-03-08T09:09:48;8.23;;;4.55;;
68010;SDS011;54794;48.348;7.878;2024-03-08T09:12:15;6.38;;;4.22;;
68010;SDS011;54794;48.348;7.878;2024-03-08T09:14:45;6.22;;;3.80;;
68010;SDS011;54794;48.348;7.878;2024-03-08T09:17:12;6.88;;;3.78;;
68010;SDS011;54794;48.348;7.878;2024-03-08T09:19:43;6.20;;;4.15;;
68010;SDS011;54794;48.348;7.878;2024-03-08T09:22:11;6.32;;;4.50;;
68010;SDS011;54794;48.348;7.878;2024-03-08T09:24:37;6.85;;;4.00;;
68010;SDS011;54794;48.348;7.878;2024-03-08T09:27:04;10.13;;;5.57;;
68010;SDS011;54794;48.348;7.878;2024-03-08T09:29:32;7.68;;;4.82;;
68010;SDS011;54794;48.348;7.878;2024-03-08T09:31:58;6.65;;;4.35;;
68010;SDS011;54794;48.348;7.878;2024-03-08T09:34:25;8.90;;;5.80;;
68010;SDS011;54794;48.348;7.878;2024-03-08T09:37:02;7.18;;;4.40;;
68010;SDS011;54794;48.348;7.878;2024-03-08T09:39:30;9.57;;;4.85;;
68010;SDS011;54794;48.348;7.878;2024-03-08T09:41:59;6.45;;;4.32;;
68010;SDS011;54794;48.348;7.878;2024-03-08T09:44:27;6.43;;;4.05;;
68010;SDS011;54794;48.348;7.878;2024-03-08T09:46:55;6.70;;;4.22;;
68010;SDS011;54794;48.348;7.878;2024-03-08T09:49:24;8.48;;;5.03;;
68010;SDS011;54794;48.348;7.878;2024-03-08T09:51:51;8.00;;;5.03;;
68010;SDS011;54794;48.348;7.878;2024-03-08T09:54:19;7.88;;;4.65;;
68010;SDS011;54794;48.348;7.878;2024-03-08T09:56:49;6.85;;;4.47;;
68010;SDS011;54794;48.348;7.878;2024-03-08T09:59:18;7.72;;;4.18;;
68010;SDS011;54794;48.348;7.878;2024-03-08T10:01:54;5.95;;;3.80;;
68010;SDS011;54794;48.348;7.878;2024-03-08T10:04:22;7.00;;;4.57;;
68010;SDS011;54794;48.348;7.878;2024-03-08T10:06:49;6.57;;;4.30;;
68010;SDS011;54794;48.348;7.878;2024-03-08T10:09:16;6.28;;;4.03;;
68010;SDS011;54794;48.348;7.878;2024-03-08T10:11:43;6.72;;;4.18;;
68010;SDS011;54794;48.348;7.878;2024-03-08T10:14:11;7.50;;;4.15;;
68010;SDS011;54794;48.348;7.878;2024-03-08T10:16:39;7.53;;;4.20;;
68010;SDS011;54794;48.348;7.878;2024-03-08T10:19:06;7.55;;;4.75;;
68010;SDS011;54794;48.348;7.878;2024-03-08T10:21:34;7.25;;;4.43;;
68010;SDS011;54794;48.348;7.878;2024-03-08T10:24:02;7.72;;;5.07;;
68010;SDS011;54794;48.348;7.878;2024-03-08T10:26:29;7.10;;;4.40;;
68010;SDS011;54794;48.348;7.878;2024-03-08T10:28:57;9.05;;;4.65;;
68010;SDS011;54794;48.348;7.878;2024-03-08T10:31:24;5.55;;;3.80;;
68010;SDS011;54794;48.348;7.878;2024-03-08T10:36:18;5.53;;;3.58;;
68010;SDS011;54794;48.348;7.878;2024-03-08T10:38:46;8.10;;;4.30;;
68010;SDS011;54794;48.348;7.878;2024-03-08T10:41:16;7.05;;;4.40;;
68010;SDS011;54794;48.348;7.878;2024-03-08T10:49:32;5.97;;;4.00;;
68010;SDS011;54794;48.348;7.878;2024-03-08T10:52:06;6.60;;;4.22;;
68010;SDS011;54794;48.348;7.878;2024-03-08T10:54:36;7.57;;;5.03;;
68010;SDS011;54794;48.348;7.878;2024-03-08T10:57:11;7.93;;;4.70;;
68010;SDS011;54794;48.348;7.878;2024-03-08T10:59:44;7.18;;;4.60;;
68010;SDS011;54794;48.348;7.878;2024-03-08T11:02:16;6.18;;;4.28;;
68010;SDS011;54794;48.348;7.878;2024-03-08T11:04:47;6.03;;;3.90;;
68010;SDS011;54794;48.348;7.878;2024-03-08T11:07:16;8.07;;;4.60;;
68010;SDS011;54794;48.348;7.878;2024-03-08T11:09:48;5.35;;;3.65;;
68010;SDS011;54794;48.348;7.878;2024-03-08T11:12:22;6.70;;;4.10;;
68010;SDS011;54794;48.348;7.878;2024-03-08T11:14:59;6.53;;;4.00;;
68010;SDS011;54794;48.348;7.878;2024-03-08T11:19:58;7.18;;;4.57;;
68010;SDS011;54794;48.348;7.878;2024-03-08T11:22:32;8.15;;;4.75;;
68010;SDS011;54794;48.348;7.878;2024-03-08T11:25:03;6.85;;;4.40;;
68010;SDS011;54794;48.348;7.878;2024-03-08T11:27:36;5.72;;;3.80;;
68010;SDS011;54794;48.348;7.878;2024-03-08T11:30:04;5.63;;;3.88;;
68010;SDS011;54794;48.348;7.878;2024-03-08T11:32:46;7.45;;;4.72;;
68010;SDS011;54794;48.348;7.878;2024-03-08T11:35:18;6.25;;;3.90;;
68010;SDS011;54794;48.348;7.878;2024-03-08T11:37:51;6.85;;;4.55;;
68010;SDS011;54794;48.348;7.878;2024-03-08T11:40:18;8.18;;;4.25;;
68010;SDS011;54794;48.348;7.878;2024-03-08T11:42:47;6.47;;;4.13;;
68010;SDS011;54794;48.348;7.878;2024-03-08T11:45:15;7.55;;;4.13;;
68010;SDS011;54794;48.348;7.878;2024-03-08T11:47:44;7.35;;;4.78;;
68010;SDS011;54794;48.348;7.878;2024-03-08T11:50:16;6.68;;;4.05;;
68010;SDS011;54794;48.348;7.878;2024-03-08T11:52:45;6.03;;;4.45;;
68010;SDS011;54794;48.348;7.878;2024-03-08T11:55:18;6.75;;;4.38;;
68010;SDS011;54794;48.348;7.878;2024-03-08T11:57:47;6.57;;;3.88;;
68010;SDS011;54794;48.348;7.878;2024-03-08T12:00:15;6.18;;;3.65;;
68010;SDS011;54794;48.348;7.878;2024-03-08T12:03:02;6.63;;;4.30;;
68010;SDS011;54794;48.348;7.878;2024-03-08T12:05:33;5.22;;;3.50;;
68010;SDS011;54794;48.348;7.878;2024-03-08T12:08:01;6.50;;;4.13;;
68010;SDS011;54794;48.348;7.878;2024-03-08T12:10:29;7.00;;;4.65;;
68010;SDS011;54794;48.348;7.878;2024-03-08T12:12:59;7.57;;;4.85;;
68010;SDS011;54794;48.348;7.878;2024-03-08T12:15:27;6.80;;;4.22;;
68010;SDS011;54794;48.348;7.878;2024-03-08T12:17:55;7.05;;;4.45;;
68010;SDS011;54794;48.348;7.878;2024-03-08T12:20:26;5.45;;;3.60;;
68010;SDS011;54794;48.348;7.878;2024-03-08T12:22:56;7.05;;;4.57;;
68010;SDS011;54794;48.348;7.878;2024-03-08T12:25:31;7.05;;;4.55;;
68010;SDS011;54794;48.348;7.878;2024-03-08T12:28:07;6.07;;;3.90;;
68010;SDS011;54794;48.348;7.878;2024-03-08T12:30:47;8.27;;;4.10;;
68010;SDS011;54794;48.348;7.878;2024-03-08T12:33:20;6.75;;;3.45;;
68010;SDS011;54794;48.348;7.878;2024-03-08T12:35:51;5.72;;;3.78;;
68010;SDS011;54794;48.348;7.878;2024-03-08T12:38:27;5.45;;;4.13;;
68010;SDS011;54794;48.348;7.878;2024-03-08T12:40:55;5.82;;;4.25;;
68010;SDS011;54794;48.348;7.878;2024-03-08T12:43:24;7.68;;;4.25;;
68010;SDS011;54794;48.348;7.878;2024-03-08T12:45:51;6.10;;;3.65;;
68010;SDS011;54794;48.348;7.878;2024-03-08T12:48:18;6.60;;;4.47;;
68010;SDS011;54794;48.348;7.878;2024-03-08T12:50:46;9.90;;;4.32;;
68010;SDS011;54794;48.348;7.878;2024-03-08T12:53:14;5.57;;;3.85;;
68010;SDS011;54794;48.348;7.878;2024-03-08T12:55:41;5.85;;;3.95;;
68010;SDS011;54794;48.348;7.878;2024-03-08T12:58:08;6.85;;;4.25;;
68010;SDS011;54794;48.348;7.878;2024-03-08T13:00:35;6.47;;;4.10;;
68010;SDS011;54794;48.348;7.878;2024-03-08T13:03:03;5.63;;;3.85;;
68010;SDS011;54794;48.348;7.878;2024-03-08T13:05:30;6.82;;;3.90;;
68010;SDS011;54794;48.348;7.878;2024-03-08T13:07:57;6.45;;;4.35;;
68010;SDS011;54794;48.348;7.878;2024-03-08T13:10:24;6.82;;;4.53;;
68010;SDS011;54794;48.348;7.878;2024-03-08T13:12:51;7.60;;;4.65;;
68010;SDS011;54794;48.348;7.878;2024-03-08T13:15:20;6.05;;;4.53;;
68010;SDS011;54794;48.348;7.878;2024-03-08T13:17:47;6.05;;;4.40;;
68010;SDS011;54794;48.348;7.878;2024-03-08T13:20:15;7.60;;;4.85;;
68010;SDS011;54794;48.348;7.878;2024-03-08T13:22:55;6.93;;;4.90;;
68010;SDS011;54794;48.348;7.878;2024-03-08T13:27:50;4.65;;;3.10;;
68010;SDS011;54794;48.348;7.878;2024-03-08T13:30:20;5.57;;;3.97;;
68010;SDS011;54794;48.348;7.878;2024-03-08T13:32:51;6.10;;;4.30;;
68010;SDS011;54794;48.348;7.878;2024-03-08T13:35:19;6.18;;;4.25;;
68010;SDS011;54794;48.348;7.878;2024-03-08T13:37:50;5.95;;;3.95;;
68010;SDS011;54794;48.348;7.878;2024-03-08T13:40:18;5.82;;;4.30;;
68010;SDS011;54794;48.348;7.878;2024-03-08T13:42:46;6.80;;;4.15;;
68010;SDS011;54794;48.348;7.878;2024-03-08T13:45:15;6.68;;;4.47;;
68010;SDS011;54794;48.348;7.878;2024-03-08T13:47:50;6.45;;;4.15;;
68010;SDS011;54794;48.348;7.878;2024-03-08T13:50:20;6.28;;;4.38;;
68010;SDS011;54794;48.348;7.878;2024-03-08T13:52:49;5.50;;;3.65;;
68010;SDS011;54794;48.348;7.878;2024-03-08T13:55:22;5.18;;;3.63;;
68010;SDS011;54794;48.348;7.878;2024-03-08T13:57:53;5.55;;;3.78;;
68010;SDS011;54794;48.348;7.878;2024-03-08T14:00:20;5.35;;;3.53;;
68010;SDS011;54794;48.348;7.878;2024-03-08T14:02:49;5.07;;;3.83;;
68010;SDS011;54794;48.348;7.878;2024-03-08T14:05:16;6.93;;;4.22;;
68010;SDS011;54794;48.348;7.878;2024-03-08T14:07:46;5.70;;;4.15;;
68010;SDS011;54794;48.348;7.878;2024-03-08T14:10:16;5.78;;;4.28;;
68010;SDS011;54794;48.348;7.878;2024-03-08T14:12:47;7.70;;;4.50;;
68010;SDS011;54794;48.348;7.878;2024-03-08T14:15:15;4.80;;;3.60;;
68010;SDS011;54794;48.348;7.878;2024-03-08T14:17:43;4.93;;;3.50;;
68010;SDS011;54794;48.348;7.878;2024-03-08T14:20:13;4.90;;;3.80;;
68010;SDS011;54794;48.348;7.878;2024-03-08T14:22:41;5.45;;;3.95;;
68010;SDS011;54794;48.348;7.878;2024-03-08T14:25:08;5.28;;;3.85;;
68010;SDS011;54794;48.348;7.878;2024-03-08T14:27:44;6.82;;;4.13;;
68010;SDS011;54794;48.348;7.878;2024-03-08T14:30:15;6.78;;;4.18;;
68010;SDS011;54794;48.348;7.878;2024-03-08T14:32:58;5.18;;;3.58;;
68010;SDS011;54794;48.348;7.878;2024-03-08T14:35:28;5.90;;;3.92;;
68010;SDS011;54794;48.348;7.878;2024-03-08T14:37:55;6.28;;;4.32;;
68010;SDS011;54794;48.348;7.878;2024-03-08T14:40:24;5.07;;;3.63;;
68010;SDS011;54794;48.348;7.878;2024-03-08T14:42:52;6.88;;;4.57;;
68010;SDS011;54794;48.348;7.878;2024-03-08T14:45:19;6.20;;;4.13;;
68010;SDS011;54794;48.348;7.878;2024-03-08T14:47:46;5.80;;;3.90;;
68010;SDS011;54794;48.348;7.878;2024-03-08T14:50:18;6.80;;;4.45;;
68010;SDS011;54794;48.348;7.878;2024-03-08T14:52:50;5.70;;;3.95;;
68010;SDS011;54794;48.348;7.878;2024-03-08T14:55:18;5.28;;;3.60;;
68010;SDS011;54794;48.348;7.878;2024-03-08T14:57:48;6.40;;;4.43;;
68010;SDS011;54794;48.348;7.878;2024-03-08T15:00:18;5.43;;;3.83;;
68010;SDS011;54794;48.348;7.878;2024-03-08T15:02:53;5.47;;;3.97;;
68010;SDS011;54794;48.348;7.878;2024-03-08T15:05:20;7.05;;;4.20;;
68010;SDS011;54794;48.348;7.878;2024-03-08T15:07:53;5.90;;;4.35;;
68010;SDS011;54794;48.348;7.878;2024-03-08T15:10:21;4.78;;;3.80;;
68010;SDS011;54794;48.348;7.878;2024-03-08T15:12:52;5.55;;;3.83;;
68010;SDS011;54794;48.348;7.878;2024-03-08T15:15:22;6.60;;;4.07;;
68010;SDS011;54794;48.348;7.878;2024-03-08T15:17:52;5.32;;;3.60;;
68010;SDS011;54794;48.348;7.878;2024-03-08T15:20:23;4.85;;;3.05;;
68010;SDS011;54794;48.348;7.878;2024-03-08T15:22:56;5.53;;;4.15;;
68010;SDS011;54794;48.348;7.878;2024-03-08T15:25:25;6.63;;;3.95;;
68010;SDS011;54794;48.348;7.878;2024-03-08T15:27:52;5.68;;;3.67;;
68010;SDS011;54794;48.348;7.878;2024-03-08T15:32:52;4.97;;;3.42;;
68010;SDS011;54794;48.348;7.878;2024-03-08T15:35:23;5.10;;;3.33;;